createdAt,value
2023-02-17T00:00:07.903Z,23.85
2023-02-17T00:02:38.413Z,22.50
2023-02-17T00:05:07.694Z,20.48
2023-02-17T00:07:36.495Z,22.27
2023-02-17T00:10:06.294Z,17.88
2023-02-17T00:12:37.081Z,18.33
2023-02-17T00:15:05.946Z,25.92
2023-02-17T00:17:34.617Z,24.27
2023-02-17T00:20:05.927Z,21.38
2023-02-17T00:22:34.302Z,19.80
2023-02-17T00:25:02.573Z,22.43
2023-02-17T00:27:30.929Z,22.03
2023-02-17T00:29:59.321Z,20.60
2023-02-17T00:32:27.997Z,22.60
2023-02-17T00:34:58.447Z,18.23
2023-02-17T00:37:28.139Z,21.42
2023-02-17T00:39:56.570Z,18.80
2023-02-17T00:42:24.763Z,17.13
2023-02-17T00:44:53.092Z,23.08
2023-02-17T00:47:21.826Z,19.65
2023-02-17T00:49:50.083Z,19.35
2023-02-17T00:52:18.293Z,23.23
2023-02-17T00:54:47.896Z,24.63
2023-02-17T00:57:16.314Z,18.35
2023-02-17T00:59:44.620Z,16.92
2023-02-17T01:02:12.797Z,19.25
2023-02-17T01:04:41.214Z,18.10
2023-02-17T01:07:09.466Z,17.55
2023-02-17T01:09:37.715Z,21.00
2023-02-17T01:12:07.438Z,16.20
2023-02-17T01:14:35.722Z,17.42
2023-02-17T01:17:03.964Z,20.48
2023-02-17T01:19:32.646Z,18.38
2023-02-17T01:22:00.893Z,15.82
2023-02-17T01:24:29.238Z,16.27
2023-02-17T01:26:57.886Z,14.50
2023-02-17T01:29:30.395Z,16.83
2023-02-17T01:31:58.735Z,16.83
2023-02-17T01:34:28.636Z,17.23
2023-02-17T01:36:56.854Z,17.70
2023-02-17T01:39:25.186Z,13.77
2023-02-17T01:41:53.460Z,18.83
2023-02-17T01:44:24.419Z,15.83
2023-02-17T01:46:56.216Z,14.23
2023-02-17T01:49:34.112Z,14.75
2023-02-17T01:52:09.192Z,13.68
2023-02-17T01:54:41.803Z,13.18
2023-02-17T01:57:11.953Z,13.00
2023-02-17T01:59:41.526Z,15.95
2023-02-17T02:02:11.410Z,17.15
2023-02-17T02:04:41.797Z,16.40
2023-02-17T02:07:17.881Z,15.87
2023-02-17T02:09:51.810Z,16.10
2023-02-17T02:12:22.689Z,14.15
2023-02-17T02:14:51.857Z,15.07
2023-02-17T02:17:33.163Z,12.25
2023-02-17T02:20:43.744Z,16.30
2023-02-17T02:23:31.325Z,14.32
2023-02-17T02:26:22.899Z,12.90
2023-02-17T02:29:09.252Z,13.18
2023-02-17T02:31:47.179Z,15.57
2023-02-17T02:34:20.258Z,16.00
2023-02-17T02:36:54.942Z,17.80
2023-02-17T02:39:26.950Z,16.00
2023-02-17T02:41:58.131Z,14.00
2023-02-17T02:44:26.871Z,14.45
2023-02-17T02:46:59.042Z,17.03
2023-02-17T02:49:30.686Z,18.45
2023-02-17T02:52:06.936Z,16.90
2023-02-17T02:54:48.256Z,14.45
2023-02-17T02:57:27.409Z,14.10
2023-02-17T03:00:07.214Z,13.33
2023-02-17T03:02:45.697Z,15.35
2023-02-17T03:05:21.482Z,17.05
2023-02-17T03:07:55.542Z,15.95
2023-02-17T03:10:24.065Z,14.40
2023-02-17T03:12:52.479Z,14.40
2023-02-17T03:15:27.203Z,13.57
2023-02-17T03:17:58.041Z,20.50
2023-02-17T03:20:28.797Z,15.68
2023-02-17T03:22:58.675Z,15.60
2023-02-17T03:25:27.000Z,14.68
2023-02-17T03:27:55.703Z,12.95
2023-02-17T03:30:24.452Z,12.85
2023-02-17T03:32:52.807Z,17.83
2023-02-17T03:35:21.227Z,14.90
2023-02-17T03:37:50.957Z,13.00
2023-02-17T03:40:19.416Z,16.25
2023-02-17T03:42:47.782Z,15.20
2023-02-17T03:45:16.102Z,12.10
2023-02-17T03:47:44.326Z,14.93
2023-02-17T03:50:12.724Z,13.38
2023-02-17T03:52:40.881Z,18.00
2023-02-17T03:55:10.535Z,13.52
2023-02-17T03:57:38.699Z,12.30
2023-02-17T04:00:09.442Z,15.30
2023-02-17T04:02:44.285Z,14.68
2023-02-17T04:05:12.735Z,13.33
2023-02-17T04:07:41.072Z,17.13
2023-02-17T04:10:11.708Z,12.52
2023-02-17T04:12:39.938Z,14.77
2023-02-17T04:15:08.880Z,14.07
2023-02-17T04:17:38.356Z,12.97
2023-02-17T04:20:09.053Z,14.70
2023-02-17T04:22:37.364Z,13.10
2023-02-17T04:25:05.731Z,11.85
2023-02-17T04:27:35.359Z,12.13
2023-02-17T04:30:03.824Z,11.90
2023-02-17T04:32:32.096Z,13.00
2023-02-17T04:35:00.333Z,10.57
2023-02-17T04:37:28.717Z,11.63
2023-02-17T04:39:56.910Z,11.13
2023-02-17T04:42:25.131Z,11.20
2023-02-17T04:44:54.678Z,11.50
2023-02-17T04:47:22.976Z,12.55
2023-02-17T04:49:51.170Z,13.82
2023-02-17T04:52:19.441Z,12.65
2023-02-17T04:54:47.658Z,9.98
2023-02-17T04:57:15.965Z,10.80
2023-02-17T04:59:44.231Z,8.68
2023-02-17T05:02:13.800Z,9.55
2023-02-17T05:04:43.478Z,9.77
2023-02-17T05:07:13.434Z,10.45
2023-02-17T05:09:41.732Z,9.43
2023-02-17T05:12:09.940Z,9.10
2023-02-17T05:14:38.490Z,10.02
2023-02-17T05:17:06.725Z,10.30
2023-02-17T05:19:36.436Z,9.40
2023-02-17T05:22:04.941Z,9.95
2023-02-17T05:24:33.517Z,9.88
2023-02-17T05:27:01.818Z,9.30
2023-02-17T05:29:30.051Z,9.52
2023-02-17T05:31:58.401Z,10.07
2023-02-17T05:34:26.892Z,9.32
2023-02-17T05:36:56.534Z,10.05
2023-02-17T05:39:24.773Z,9.70
2023-02-17T05:41:53.022Z,7.78
2023-02-17T05:44:21.286Z,7.65
2023-02-17T05:46:49.723Z,8.27
2023-02-17T05:49:17.961Z,11.10
2023-02-17T05:51:46.299Z,8.77
2023-02-17T05:54:15.910Z,10.38
2023-02-17T05:56:44.199Z,8.60
2023-02-17T05:59:12.455Z,10.40
2023-02-17T06:01:40.665Z,10.13
2023-02-17T06:04:08.929Z,12.02
2023-02-17T06:06:37.151Z,11.20
2023-02-17T06:09:05.536Z,12.50
2023-02-17T06:11:35.210Z,13.25
2023-02-17T06:14:04.146Z,13.15
2023-02-17T06:16:32.455Z,11.85
2023-02-17T06:19:02.320Z,11.93
2023-02-17T06:21:32.221Z,10.85
2023-02-17T06:24:00.464Z,9.13
2023-02-17T06:26:28.744Z,8.57
2023-02-17T06:28:58.440Z,7.80
2023-02-17T06:31:27.227Z,8.60
2023-02-17T06:33:55.557Z,7.93
2023-02-17T06:36:23.836Z,7.65
2023-02-17T06:38:52.016Z,7.60
2023-02-17T06:41:20.273Z,8.75
2023-02-17T06:43:48.526Z,9.02
2023-02-17T06:46:18.129Z,8.40
2023-02-17T06:48:46.390Z,11.45
2023-02-17T06:51:14.737Z,9.60
2023-02-17T06:53:42.985Z,10.57
2023-02-17T06:56:11.275Z,8.88
2023-02-17T06:58:39.696Z,9.07
2023-02-17T07:01:09.615Z,7.55
2023-02-17T07:03:39.298Z,10.47
2023-02-17T07:06:07.888Z,8.20
2023-02-17T07:08:36.503Z,9.20
2023-02-17T07:11:06.652Z,7.77
2023-02-17T07:13:35.576Z,9.43
2023-02-17T07:16:04.308Z,11.23
2023-02-17T07:18:32.641Z,8.83
2023-02-17T07:21:02.367Z,8.60
2023-02-17T07:23:30.755Z,9.18
2023-02-17T07:26:03.388Z,8.68
2023-02-17T07:28:31.858Z,8.48
2023-02-17T07:31:06.381Z,9.65
2023-02-17T07:33:35.160Z,10.33
2023-02-17T07:36:09.020Z,8.75
2023-02-17T07:38:38.128Z,10.88
2023-02-17T07:41:07.401Z,10.35
2023-02-17T07:43:35.841Z,9.05
2023-02-17T07:46:06.455Z,9.77
2023-02-17T07:48:35.049Z,10.38
2023-02-17T07:51:08.755Z,9.90
2023-02-17T07:53:37.196Z,7.30
2023-02-17T07:56:06.910Z,12.77
2023-02-17T07:58:36.854Z,9.50
2023-02-17T08:01:07.565Z,9.50
2023-02-17T08:03:36.039Z,8.88
2023-02-17T08:06:05.220Z,8.93
2023-02-17T08:09:00.654Z,9.20
2023-02-17T08:11:48.940Z,10.00
2023-02-17T08:14:18.667Z,9.85
2023-02-17T08:16:46.953Z,10.48
2023-02-17T08:19:15.277Z,11.00
2023-02-17T08:21:43.529Z,11.05
2023-02-17T08:24:13.309Z,9.68
2023-02-17T08:26:41.624Z,11.10
2023-02-17T08:29:10.202Z,10.00
2023-02-17T08:31:39.142Z,11.13
2023-02-17T08:34:09.323Z,14.35
2023-02-17T08:36:38.115Z,10.00
2023-02-17T08:39:08.093Z,8.17
2023-02-17T08:41:39.718Z,10.38
2023-02-17T08:44:10.510Z,9.07
2023-02-17T08:46:39.259Z,10.40
2023-02-17T08:49:07.938Z,10.00
2023-02-17T08:51:37.271Z,9.82
2023-02-17T08:54:07.700Z,8.63
2023-02-17T08:56:39.324Z,8.25
2023-02-17T08:59:09.326Z,9.50
2023-02-17T09:01:38.430Z,10.38
2023-02-17T09:04:09.113Z,9.17
2023-02-17T09:06:39.072Z,8.93
2023-02-17T09:09:09.795Z,7.77
2023-02-17T09:11:39.764Z,6.70
2023-02-17T09:14:08.687Z,10.20
2023-02-17T09:16:37.145Z,6.85
2023-02-17T09:19:05.877Z,8.20
2023-02-17T09:21:34.411Z,8.40
2023-02-17T09:24:02.664Z,9.00
2023-02-17T09:26:31.043Z,8.43
2023-02-17T09:29:02.107Z,7.25
2023-02-17T09:31:31.259Z,7.13
2023-02-17T09:34:00.140Z,9.80
2023-02-17T09:36:31.822Z,7.03
2023-02-17T09:39:01.791Z,7.90
2023-02-17T09:41:38.926Z,6.22
2023-02-17T09:44:17.985Z,8.10
2023-02-17T09:47:01.013Z,9.25
2023-02-17T09:49:36.263Z,8.37
2023-02-17T09:52:10.116Z,7.70
2023-02-17T09:54:42.790Z,8.70
2023-02-17T09:57:19.635Z,10.43
2023-02-17T09:59:53.449Z,8.25
2023-02-17T10:02:28.676Z,8.75
2023-02-17T10:05:01.784Z,8.33
2023-02-17T10:07:34.137Z,7.97
2023-02-17T10:10:09.454Z,9.90
2023-02-17T10:12:41.887Z,8.05
2023-02-17T10:15:17.946Z,8.03
2023-02-17T10:17:53.026Z,8.82
2023-02-17T10:20:25.027Z,8.32
2023-02-17T10:22:57.090Z,8.70
2023-02-17T10:25:40.447Z,8.88
2023-02-17T10:28:11.750Z,8.30
2023-02-17T10:30:50.830Z,9.63
2023-02-17T10:33:26.901Z,8.45
2023-02-17T10:36:00.988Z,8.27
2023-02-17T10:38:42.630Z,9.48
2023-02-17T10:41:15.914Z,7.15
2023-02-17T10:43:45.785Z,12.05
2023-02-17T10:46:18.886Z,11.15
2023-02-17T10:48:51.320Z,8.67
2023-02-17T10:51:23.874Z,8.90
2023-02-17T10:53:58.599Z,9.15
2023-02-17T10:56:33.633Z,7.40
2023-02-17T10:59:07.474Z,7.32
2023-02-17T11:01:39.887Z,7.00
2023-02-17T11:04:13.418Z,5.60
2023-02-17T11:06:45.451Z,6.90
2023-02-17T11:09:23.344Z,6.72
2023-02-17T11:11:58.556Z,6.68
2023-02-17T11:14:29.329Z,5.80
2023-02-17T11:17:01.801Z,6.60
2023-02-17T11:19:33.964Z,7.32
2023-02-17T11:22:04.894Z,7.07
2023-02-17T11:24:35.058Z,7.32
2023-02-17T11:27:06.258Z,6.05
2023-02-17T11:29:34.468Z,5.55
2023-02-17T11:32:07.484Z,8.50
2023-02-17T11:34:38.728Z,6.32
2023-02-17T11:37:20.830Z,6.73
2023-02-17T11:39:51.059Z,4.45
2023-02-17T11:42:23.206Z,5.97
2023-02-17T11:44:52.113Z,6.10
2023-02-17T11:47:32.046Z,5.05
2023-02-17T11:50:38.948Z,5.10
2023-02-17T11:53:26.222Z,4.07
2023-02-17T11:56:09.638Z,5.75
2023-02-17T11:58:58.116Z,6.35
2023-02-17T12:01:49.992Z,6.80
2023-02-17T12:04:29.000Z,4.00
2023-02-17T12:07:31.068Z,6.40
2023-02-17T12:10:04.663Z,4.38
2023-02-17T12:12:41.787Z,3.85
2023-02-17T12:15:26.295Z,5.75
2023-02-17T12:18:02.601Z,4.55
2023-02-17T12:20:45.627Z,4.00
2023-02-17T12:23:28.700Z,6.25
2023-02-17T12:26:00.821Z,5.75
2023-02-17T12:28:43.002Z,4.88
2023-02-17T12:31:22.366Z,5.90
2023-02-17T12:33:59.099Z,4.57
2023-02-17T12:36:32.713Z,3.65
2023-02-17T12:39:05.274Z,3.80
2023-02-17T12:41:38.066Z,4.00
2023-02-17T12:44:13.343Z,3.70
2023-02-17T12:46:44.293Z,6.18
2023-02-17T12:49:17.402Z,5.63
2023-02-17T12:51:51.222Z,5.37
2023-02-17T12:54:25.625Z,3.58
2023-02-17T12:57:09.166Z,4.13
2023-02-17T12:59:39.952Z,4.80
2023-02-17T13:02:12.036Z,5.23
2023-02-17T13:04:41.828Z,6.80
2023-02-17T13:07:36.920Z,6.30
2023-02-17T13:10:07.700Z,5.45
2023-02-17T13:12:40.981Z,4.60
2023-02-17T13:15:29.626Z,5.50
2023-02-17T13:18:01.385Z,5.22
2023-02-17T13:20:45.978Z,6.10
2023-02-17T13:23:29.032Z,7.15
2023-02-17T13:26:35.671Z,4.97
2023-02-17T13:29:21.965Z,4.80
2023-02-17T13:31:54.101Z,10.25
2023-02-17T13:34:32.563Z,8.20
2023-02-17T13:37:03.527Z,9.52
2023-02-17T13:39:36.709Z,9.27
2023-02-17T13:42:36.394Z,7.15
2023-02-17T13:45:14.651Z,9.03
2023-02-17T13:47:43.604Z,9.13
2023-02-17T13:50:29.070Z,11.05
2023-02-17T13:52:57.974Z,10.80
2023-02-17T13:55:27.682Z,9.20
2023-02-17T13:57:57.886Z,7.28
2023-02-17T14:00:28.463Z,7.43
2023-02-17T14:02:58.420Z,6.25
2023-02-17T14:05:29.658Z,7.28
2023-02-17T14:08:01.458Z,6.40
2023-02-17T14:10:31.603Z,7.10
2023-02-17T14:13:00.881Z,5.77
2023-02-17T14:15:30.005Z,4.13
2023-02-17T14:17:58.412Z,5.80
2023-02-17T14:20:33.179Z,5.90
2023-02-17T14:23:04.886Z,3.42
2023-02-17T14:25:36.960Z,4.28
2023-02-17T14:28:06.019Z,5.32
2023-02-17T14:30:37.091Z,4.90
2023-02-17T14:33:07.959Z,6.30
2023-02-17T14:35:39.381Z,6.20
2023-02-17T14:38:22.014Z,8.93
2023-02-17T14:40:53.527Z,5.30
2023-02-17T14:43:21.879Z,5.97
2023-02-17T14:45:50.497Z,8.63
2023-02-17T14:48:19.489Z,12.93
2023-02-17T14:50:48.384Z,11.38
2023-02-17T14:53:25.650Z,8.98
2023-02-17T14:56:00.682Z,7.03
2023-02-17T14:58:30.463Z,9.17
2023-02-17T15:01:00.050Z,8.25
2023-02-17T15:03:28.759Z,11.77
2023-02-17T15:05:57.178Z,10.45
2023-02-17T15:08:32.373Z,12.53
2023-02-17T15:11:02.821Z,11.20
2023-02-17T15:13:31.913Z,17.60
2023-02-17T15:16:00.653Z,13.07
2023-02-17T15:18:28.924Z,12.07
2023-02-17T15:20:57.989Z,9.10
2023-02-17T15:23:26.613Z,9.48
2023-02-17T15:25:56.517Z,10.00
2023-02-17T15:28:26.143Z,11.38
2023-02-17T15:30:56.928Z,8.38
2023-02-17T15:33:25.873Z,15.40
2023-02-17T15:35:55.528Z,9.80
2023-02-17T15:38:24.959Z,12.07
2023-02-17T15:40:56.779Z,9.65
2023-02-17T15:46:12.077Z,10.00
2023-02-17T15:48:40.394Z,12.85
2023-02-17T15:51:10.822Z,15.80
2023-02-17T15:53:41.253Z,18.85
2023-02-17T15:56:20.143Z,21.58
2023-02-17T15:58:51.233Z,24.27
2023-02-17T16:01:25.803Z,29.05
2023-02-17T16:03:54.694Z,24.17
2023-02-17T16:06:23.158Z,23.63
2023-02-17T16:08:51.472Z,21.92
2023-02-17T16:11:22.271Z,30.20
2023-02-17T16:13:52.749Z,24.67
2023-02-17T16:16:24.039Z,31.17
2023-02-17T16:18:52.761Z,30.65
2023-02-17T16:21:21.166Z,37.40
2023-02-17T16:23:49.634Z,27.40
2023-02-17T16:26:25.659Z,18.40
2023-02-17T16:28:55.846Z,16.48
2023-02-17T16:31:24.635Z,15.07
2023-02-17T16:33:59.515Z,16.13
2023-02-17T16:36:31.268Z,22.98
2023-02-17T16:39:01.675Z,21.13
2023-02-17T16:41:29.962Z,23.00
2023-02-17T16:43:59.764Z,19.70
2023-02-17T16:46:31.251Z,21.55
2023-02-17T16:49:01.141Z,25.90
2023-02-17T16:51:30.076Z,15.50
2023-02-17T16:53:58.318Z,23.10
2023-02-17T16:56:35.490Z,20.02
2023-02-17T16:59:05.818Z,17.13
2023-02-17T17:01:34.132Z,17.55
2023-02-17T17:04:02.385Z,13.98
2023-02-17T17:06:31.348Z,16.50
2023-02-17T17:08:59.600Z,15.98
2023-02-17T17:11:29.174Z,11.05
2023-02-17T17:13:57.426Z,10.93
2023-02-17T17:16:31.223Z,10.80
2023-02-17T17:19:00.250Z,9.45
2023-02-17T17:21:29.672Z,11.55
2023-02-17T17:23:58.152Z,10.63
2023-02-17T17:26:30.063Z,14.73
2023-02-17T17:28:59.330Z,9.63
2023-02-17T17:31:29.831Z,13.85
2023-02-17T17:33:58.126Z,8.47
2023-02-17T17:36:31.282Z,9.90
2023-02-17T17:39:00.433Z,11.32
2023-02-17T17:41:30.116Z,10.80
2023-02-17T17:43:58.599Z,10.88
2023-02-17T17:46:30.978Z,8.48
2023-02-17T17:49:01.583Z,9.70
2023-02-17T17:51:33.467Z,10.55
2023-02-17T17:54:01.875Z,11.70
2023-02-17T17:56:31.964Z,9.13
2023-02-17T17:59:01.908Z,5.63
2023-02-17T18:01:31.894Z,6.70
2023-02-17T18:04:00.724Z,6.75
2023-02-17T18:06:32.358Z,7.72
2023-02-17T18:09:03.868Z,7.40
2023-02-17T18:11:33.349Z,8.25
2023-02-17T18:14:05.369Z,6.80
2023-02-17T18:16:36.362Z,6.80
2023-02-17T18:19:07.260Z,11.13
2023-02-17T18:21:36.679Z,9.90
2023-02-17T18:24:05.477Z,8.55
2023-02-17T18:26:33.987Z,9.55
2023-02-17T18:29:02.409Z,10.38
2023-02-17T18:31:30.814Z,9.50
2023-02-17T18:34:00.669Z,11.13
2023-02-17T18:36:28.977Z,11.07
2023-02-17T18:38:57.185Z,9.15
2023-02-17T18:41:27.430Z,10.10
2023-02-17T18:43:56.852Z,13.13
2023-02-17T18:46:26.830Z,8.65
2023-02-17T18:48:56.030Z,12.80
2023-02-17T18:51:27.580Z,9.63
2023-02-17T18:53:56.454Z,9.77
2023-02-17T18:56:27.279Z,10.38
2023-02-17T18:58:56.874Z,11.33
2023-02-17T19:01:26.888Z,10.27
2023-02-17T19:03:55.874Z,8.37
2023-02-17T19:06:28.378Z,8.95
2023-02-17T19:08:56.876Z,11.15
2023-02-17T19:11:26.158Z,8.90
2023-02-17T19:13:54.658Z,7.78
2023-02-17T19:16:25.407Z,9.00
2023-02-17T19:18:54.002Z,9.70
2023-02-17T19:21:22.614Z,10.90
2023-02-17T19:23:52.983Z,13.40
2023-02-17T19:26:22.548Z,11.15
2023-02-17T19:28:50.821Z,11.40
2023-02-17T19:31:20.878Z,12.55
2023-02-17T19:33:49.439Z,13.27
2023-02-17T19:36:20.037Z,13.57
2023-02-17T19:38:49.147Z,12.95
2023-02-17T19:41:19.946Z,15.35
2023-02-17T19:43:48.403Z,13.85
2023-02-17T19:46:19.816Z,13.98
2023-02-17T19:48:48.330Z,15.65
2023-02-17T19:51:16.734Z,16.40
2023-02-17T19:53:45.109Z,14.45
2023-02-17T19:56:15.739Z,14.10
2023-02-17T19:58:46.399Z,15.90
2023-02-17T20:01:16.858Z,15.32
2023-02-17T20:03:45.720Z,15.63
2023-02-17T20:06:17.362Z,14.63
2023-02-17T20:08:47.531Z,17.77
2023-02-17T20:11:16.522Z,22.35
2023-02-17T20:13:46.737Z,16.33
2023-02-17T20:16:17.184Z,14.82
2023-02-17T20:18:48.356Z,21.88
2023-02-17T20:21:19.272Z,18.75
2023-02-17T20:23:48.015Z,18.03
2023-02-17T20:26:18.132Z,14.73
2023-02-17T20:28:48.396Z,14.82
2023-02-17T20:31:17.653Z,14.35
2023-02-17T20:33:46.532Z,15.05
2023-02-17T20:36:14.740Z,19.60
2023-02-17T20:38:43.325Z,25.40
2023-02-17T20:41:15.331Z,16.20
2023-02-17T20:43:44.483Z,14.00
2023-02-17T20:46:16.594Z,18.27
2023-02-17T20:48:45.764Z,18.30
2023-02-17T20:51:14.446Z,16.95
2023-02-17T20:53:42.754Z,15.80
2023-02-17T20:56:16.187Z,13.60
2023-02-17T20:58:44.465Z,10.60
2023-02-17T21:01:12.980Z,8.90
2023-02-17T21:03:43.056Z,9.57
2023-02-17T21:06:22.975Z,13.43
2023-02-17T21:08:53.296Z,8.32
2023-02-17T21:11:21.825Z,12.38
2023-02-17T21:13:50.064Z,11.10
2023-02-17T21:16:21.607Z,20.08
2023-02-17T21:18:51.822Z,12.35
2023-02-17T21:21:20.393Z,13.40
2023-02-17T21:23:49.040Z,15.27
2023-02-17T21:26:18.172Z,18.23
2023-02-17T21:28:49.377Z,17.98
2023-02-17T21:31:18.687Z,14.00
2023-02-17T21:33:47.216Z,15.18
2023-02-17T21:36:18.689Z,14.88
2023-02-17T21:38:47.451Z,10.70
2023-02-17T21:41:18.196Z,12.98
2023-02-17T21:44:03.081Z,8.32
2023-02-17T21:46:31.559Z,11.18
2023-02-17T21:49:01.313Z,14.75
2023-02-17T21:51:31.508Z,10.98
2023-02-17T21:54:00.301Z,14.40
2023-02-17T21:56:28.707Z,12.77
2023-02-17T21:58:57.429Z,15.30
2023-02-17T22:01:27.982Z,12.50
2023-02-17T22:03:57.653Z,15.57
2023-02-17T22:06:27.958Z,19.70
2023-02-17T22:08:58.125Z,16.50
2023-02-17T22:11:28.624Z,18.10
2023-02-17T22:13:58.335Z,16.52
2023-02-17T22:16:26.949Z,15.68
2023-02-17T22:18:55.252Z,16.77
2023-02-17T22:21:23.678Z,18.10
2023-02-17T22:23:52.715Z,19.55
2023-02-17T22:26:25.463Z,19.70
2023-02-17T22:28:54.329Z,20.02
2023-02-17T22:31:24.994Z,22.90
2023-02-17T22:33:53.264Z,23.20
2023-02-17T22:36:23.379Z,19.95
2023-02-17T22:38:52.480Z,20.48
2023-02-17T22:41:23.712Z,20.73
2023-02-17T22:43:52.673Z,21.87
2023-02-17T22:46:23.127Z,18.60
2023-02-17T22:48:52.720Z,19.13
2023-02-17T22:51:23.755Z,19.35
2023-02-17T22:53:52.351Z,21.50
2023-02-17T22:56:22.914Z,20.85
2023-02-17T22:58:55.693Z,15.52
2023-02-17T23:01:24.156Z,13.48
2023-02-17T23:03:54.329Z,16.27
2023-02-17T23:06:24.918Z,14.50
2023-02-17T23:08:53.389Z,19.15
2023-02-17T23:11:38.938Z,19.25
2023-02-17T23:14:07.734Z,23.75
2023-02-17T23:16:36.022Z,16.77
2023-02-17T23:19:08.217Z,18.35
2023-02-17T23:21:36.975Z,16.50
2023-02-17T23:24:05.829Z,17.13
2023-02-17T23:26:35.437Z,18.08
2023-02-17T23:29:03.773Z,18.95
2023-02-17T23:31:32.013Z,19.15
2023-02-17T23:34:00.474Z,17.57
2023-02-17T23:36:28.777Z,21.38
2023-02-17T23:38:59.267Z,21.33
2023-02-17T23:41:28.051Z,21.77
2023-02-17T23:43:57.649Z,20.70
2023-02-17T23:46:25.891Z,22.15
2023-02-17T23:48:54.170Z,25.40
2023-02-17T23:51:22.850Z,21.55
2023-02-17T23:53:51.111Z,19.58
2023-02-17T23:56:22.132Z,25.00
2023-02-17T23:58:50.485Z,24.77
